TimeCDT,TemperatureF,Dew PointF,Humidity,Sea Level PressureIn,VisibilityMPH,Wind Direction,Wind SpeedMPH,Gust SpeedMPH,PrecipitationIn,Events,Conditions,WindDirDegrees,DateUTC
12:53 AM,57.9,52.0,81,30.06,10.0,Calm,Calm,-,N/A,,Partly Cloudy,0,2013-09-03 05:53:00
1:53 AM,55.9,52.0,87,30.06,10.0,Calm,Calm,-,N/A,,Clear,0,2013-09-03 06:53:00
2:53 AM,55.0,51.1,86,30.07,10.0,Calm,Calm,-,N/A,,Clear,0,2013-09-03 07:53:00
3:53 AM,54.0,51.1,90,30.07,9.0,Calm,Calm,-,N/A,,Clear,0,2013-09-03 08:53:00
4:39 AM,53.6,51.8,94,30.06,10.0,Calm,Calm,-,N/A,,Partly Cloudy,0,2013-09-03 09:39:00
4:53 AM,54.0,51.1,90,30.07,10.0,Calm,Calm,-,N/A,Fog,Patches of Fog,0,2013-09-03 09:53:00
5:53 AM,53.1,51.1,93,30.08,10.0,South,3.5,-,N/A,,Scattered Clouds,180,2013-09-03 10:53:00
6:53 AM,53.1,51.1,93,30.11,8.0,Calm,Calm,-,N/A,Fog,Patches of Fog,0,2013-09-03 11:53:00
7:53 AM,54.0,51.1,90,30.11,10.0,SSW,3.5,-,N/A,Fog,Patches of Fog,210,2013-09-03 12:53:00
8:53 AM,57.9,52.0,81,30.11,10.0,SW,8.1,-,N/A,,Partly Cloudy,220,2013-09-03 13:53:00
9:53 AM,63.0,53.1,70,30.11,10.0,WSW,6.9,-,N/A,,Scattered Clouds,250,2013-09-03 14:53:00
10:53 AM,64.9,53.1,65,30.10,10.0,SW,5.8,-,N/A,,Mostly Cloudy,220,2013-09-03 15:53:00
11:53 AM,68.0,52.0,56,30.09,10.0,Calm,Calm,-,N/A,,Mostly Cloudy,0,2013-09-03 16:53:00
12:53 PM,70.0,52.0,53,30.07,10.0,SSW,6.9,-,N/A,,Mostly Cloudy,210,2013-09-03 17:53:00
1:53 PM,73.0,51.1,46,30.05,10.0,Variable,3.5,-,N/A,,Mostly Cloudy,0,2013-09-03 18:53:00
2:53 PM,73.0,51.1,46,30.04,10.0,SSW,3.5,-,N/A,,Mostly Cloudy,200,2013-09-03 19:53:00
3:53 PM,75.9,52.0,43,30.02,10.0,SW,6.9,-,N/A,,Partly Cloudy,220,2013-09-03 20:53:00
4:53 PM,77.0,53.1,43,30.01,10.0,West,4.6,-,N/A,,Partly Cloudy,260,2013-09-03 21:53:00
5:53 PM,75.9,54.0,46,30.01,10.0,SW,6.9,-,N/A,,Mostly Cloudy,230,2013-09-03 22:53:00
6:53 PM,75.9,55.0,48,30.01,10.0,WSW,4.6,-,N/A,,Scattered Clouds,240,2013-09-03 23:53:00
7:53 PM,75.0,55.0,50,30.01,10.0,SSW,3.5,-,N/A,,Scattered Clouds,200,2013-09-04 00:53:00
8:53 PM,72.0,57.0,59,30.02,10.0,WSW,3.5,-,N/A,,Mostly Cloudy,240,2013-09-04 01:53:00
9:53 PM,70.0,57.9,65,30.01,10.0,SW,5.8,-,N/A,,Scattered Clouds,220,2013-09-04 02:53:00
10:53 PM,68.0,57.0,68,30.02,10.0,Calm,Calm,-,N/A,,Scattered Clouds,0,2013-09-04 03:53:00
11:53 PM,66.9,57.9,73,30.02,10.0,Calm,Calm,-,N/A,,Partly Cloudy,0,2013-09-04 04:53:00